Time;durP1;ratioP1;P1;durP2;ratioP2;P2;SDS_P1;SDS_P2;PMS_P1;PMS_P2;Temp;Humidity;BMP_temperature;BMP_pressure;BME280_temperature;BME280_humidity;BME280_pressure;Samples;Min_cycle;Max_cycle;Signal;HPM_P1;HPM_P2
2023/07/25 00:02:22;;;;;;;1.70;1.60;;;19.20;99.90;;;;;;5011714;28;20029;-45
2023/07/25 00:04:48;;;;;;;3.13;1.27;;;19.20;99.90;;;;;;4993921;28;20018;-48
2023/07/25 00:07:13;;;;;;;1.40;1.27;;;19.40;99.90;;;;;;5011265;28;20026;-49
2023/07/25 00:09:39;;;;;;;1.52;1.25;;;19.20;99.90;;;;;;5014878;28;20393;-49
2023/07/25 00:12:04;;;;;;;3.08;1.50;;;19.20;99.90;;;;;;5015400;28;20025;-48
2023/07/25 00:14:30;;;;;;;1.45;1.35;;;19.30;99.90;;;;;;4997811;28;20142;-48
2023/07/25 00:16:56;;;;;;;1.77;1.30;;;19.30;99.90;;;;;;5015297;28;20080;-47
2023/07/25 00:19:21;;;;;;;2.40;1.40;;;19.30;99.90;;;;;;4997782;28;20022;-45
2023/07/25 00:21:47;;;;;;;1.77;1.40;;;19.40;99.90;;;;;;5016714;28;20421;-50
2023/07/25 00:24:12;;;;;;;2.83;1.40;;;19.30;99.90;;;;;;5024705;28;20084;-45
2023/07/25 00:26:38;;;;;;;1.23;1.23;;;19.30;99.90;;;;;;5022198;28;20455;-48
2023/07/25 00:29:04;;;;;;;5.20;1.50;;;19.30;99.90;;;;;;5016229;28;20025;-45
2023/07/25 00:31:30;;;;;;;5.25;1.60;;;19.30;99.90;;;;;;5015756;28;20026;-48
2023/07/25 00:33:56;;;;;;;1.77;1.40;;;19.30;99.90;;;;;;5015190;28;20041;-48
2023/07/25 00:36:21;;;;;;;2.17;1.25;;;19.30;99.90;;;;;;5016634;28;20033;-46
2023/07/25 00:38:47;;;;;;;1.65;1.55;;;19.20;99.90;;;;;;5015332;28;20440;-43
2023/07/25 00:41:13;;;;;;;1.48;1.38;;;19.80;99.90;;;;;;5014991;28;20397;-46
2023/07/25 00:43:38;;;;;;;1.80;1.70;;;19.30;99.90;;;;;;5014814;28;20504;-48
2023/07/25 00:46:05;;;;;;;3.15;1.30;;;19.30;99.90;;;;;;5014866;28;20034;-45
2023/07/25 00:48:31;;;;;;;2.28;1.65;;;19.30;99.90;;;;;;5014616;28;20458;-45
2023/07/25 00:50:57;;;;;;;2.22;1.50;;;19.30;99.90;;;;;;4997284;28;20117;-45
2023/07/25 00:53:23;;;;;;;3.30;1.88;;;19.30;99.90;;;;;;5014724;28;20422;-45
2023/07/25 00:55:50;;;;;;;2.05;1.50;;;19.30;99.90;;;;;;5014526;28;20030;-45
2023/07/25 00:58:16;;;;;;;1.67;1.50;;;19.30;99.90;;;;;;5014489;28;20022;-49
2023/07/25 01:00:44;;;;;;;2.30;1.52;;;19.30;99.90;;;;;;4996911;28;20036;-49
2023/07/25 01:03:11;;;;;;;2.53;1.90;;;19.30;99.90;;;;;;5014568;28;20404;-45
2023/07/25 01:05:43;;;;;;;2.17;1.30;;;19.20;99.90;;;;;;5014500;28;20032;-50
2023/07/25 01:08:09;;;;;;;1.38;1.30;;;19.30;99.90;;;;;;5014270;28;20098;-46
2023/07/25 01:10:36;;;;;;;1.20;1.10;;;19.30;99.90;;;;;;4996781;28;20046;-47
2023/07/25 01:13:01;;;;;;;1.63;1.52;;;19.30;99.90;;;;;;5014121;28;20453;-49
2023/07/25 01:15:29;;;;;;;1.58;1.48;;;19.40;99.90;;;;;;5014374;28;20060;-47
2023/07/25 01:17:55;;;;;;;1.35;1.23;;;19.40;99.90;;;;;;5013874;28;20386;-49
2023/07/25 01:20:22;;;;;;;2.15;1.35;;;19.50;99.90;;;;;;5013017;28;20117;-50
2023/07/25 01:22:49;;;;;;;1.45;1.35;;;19.50;99.90;;;;;;5013959;28;20054;-46
2023/07/25 01:25:15;;;;;;;1.67;1.58;;;19.50;99.90;;;;;;5014006;28;20029;-46
2023/07/25 01:27:40;;;;;;;3.33;1.38;;;19.50;99.90;;;;;;5013806;28;20397;-45
2023/07/25 01:30:06;;;;;;;1.73;1.30;;;19.60;99.90;;;;;;5013800;28;20022;-45
2023/07/25 01:32:32;;;;;;;3.67;1.40;;;19.50;99.90;;;;;;5013963;28;20113;-47
2023/07/25 01:34:58;;;;;;;2.15;1.20;;;19.60;99.90;;;;;;5013815;28;20140;-46
2023/07/25 01:37:24;;;;;;;1.92;1.60;;;19.50;99.90;;;;;;5013630;28;20504;-46
2023/07/25 01:39:50;;;;;;;1.60;1.50;;;19.50;99.90;;;;;;5013807;28;20029;-51
2023/07/25 01:42:15;;;;;;;1.40;1.30;;;19.50;99.90;;;;;;5013637;28;20056;-45
2023/07/25 01:44:41;;;;;;;3.10;1.50;;;19.40;99.90;;;;;;5013683;28;20589;-45
2023/07/25 01:47:07;;;;;;;4.30;2.70;;;19.40;99.90;;;;;;5013358;28;20040;-45
2023/07/25 01:49:32;;;;;;;1.77;1.40;;;19.20;99.90;;;;;;4996035;28;20022;-48
2023/07/25 01:51:58;;;;;;;3.50;1.42;;;19.20;99.90;;;;;;5013526;28;20456;-48
2023/07/25 01:54:23;;;;;;;1.85;1.70;;;19.20;99.90;;;;;;5013550;28;20105;-46
2023/07/25 01:56:49;;;;;;;1.70;1.60;;;19.20;99.90;;;;;;5013390;28;20081;-45
2023/07/25 01:59:14;;;;;;;1.42;1.33;;;19.30;99.90;;;;;;5013199;28;20030;-49
2023/07/25 02:01:40;;;;;;;1.48;1.38;;;19.30;99.90;;;;;;5013283;28;20041;-51
2023/07/25 02:04:05;;;;;;;2.55;1.50;;;19.30;99.90;;;;;;5013174;28;20032;-45
2023/07/25 02:06:31;;;;;;;6.90;2.13;;;19.30;99.90;;;;;;5013226;28;20461;-46
2023/07/25 02:08:56;;;;;;;4.93;1.63;;;19.20;99.90;;;;;;5013015;28;20022;-51
2023/07/25 02:11:22;;;;;;;1.30;1.25;;;19.20;99.90;;;;;;5013199;28;20041;-47
2023/07/25 02:13:47;;;;;;;1.67;1.58;;;19.20;99.90;;;;;;5013021;28;20379;-48
2023/07/25 02:16:13;;;;;;;5.70;2.05;;;19.00;99.90;;;;;;5013895;28;20022;-48
2023/07/25 02:18:39;;;;;;;2.22;2.03;;;19.00;99.90;;;;;;5013378;28;20106;-45
2023/07/25 02:21:04;;;;;;;4.10;1.50;;;18.90;99.90;;;;;;5013070;28;20100;-45
2023/07/25 02:23:30;;;;;;;3.22;1.40;;;18.70;99.90;;;;;;5013002;28;20554;-45
2023/07/25 02:25:55;;;;;;;1.60;1.50;;;18.60;99.90;;;;;;5012935;28;20033;-48
2023/07/25 02:28:21;;;;;;;2.25;1.50;;;18.50;99.90;;;;;;5012736;28;20033;-46
2023/07/25 02:30:46;;;;;;;5.40;1.77;;;18.40;99.90;;;;;;5012321;28;20041;-45
2023/07/25 02:33:12;;;;;;;1.73;1.50;;;18.40;99.90;;;;;;5012783;28;20026;-45
2023/07/25 02:35:38;;;;;;;1.80;1.70;;;18.40;99.90;;;;;;5012716;28;20030;-46
2023/07/25 02:38:03;;;;;;;3.22;1.90;;;18.30;99.90;;;;;;5012473;28;20108;-51
2023/07/25 02:40:29;;;;;;;1.95;1.70;;;18.20;99.90;;;;;;5012756;28;20398;-45
2023/07/25 02:42:54;;;;;;;2.63;2.42;;;18.20;99.90;;;;;;5012468;28;20041;-47
2023/07/25 02:45:20;;;;;;;3.83;2.60;;;18.20;99.90;;;;;;4994870;28;20076;-47
2023/07/25 02:47:45;;;;;;;4.07;2.17;;;18.00;99.90;;;;;;5012282;28;20396;-45
2023/07/25 02:50:11;;;;;;;2.80;2.47;;;18.10;99.90;;;;;;5012487;28;20026;-47
2023/07/25 02:52:36;;;;;;;2.30;2.03;;;17.90;99.90;;;;;;5012398;28;20040;-48
2023/07/25 02:55:03;;;;;;;2.17;1.95;;;17.80;99.90;;;;;;5012499;28;20456;-46
2023/07/25 02:57:28;;;;;;;1.98;1.75;;;17.70;99.90;;;;;;5012087;28;20026;-52
2023/07/25 02:59:54;;;;;;;4.15;2.83;;;17.70;99.90;;;;;;5012520;28;20503;-43
2023/07/25 03:02:19;;;;;;;2.65;1.83;;;17.60;99.90;;;;;;5012165;28;20034;-44
2023/07/25 03:04:45;;;;;;;2.38;1.95;;;17.40;99.90;;;;;;5012195;28;20520;-45
2023/07/25 03:07:10;;;;;;;5.20;2.03;;;17.40;99.90;;;;;;5011960;28;20034;-50
2023/07/25 03:09:37;;;;;;;4.32;2.42;;;17.30;99.90;;;;;;5012220;28;20026;-45
2023/07/25 03:12:03;;;;;;;5.28;2.40;;;17.30;99.90;;;;;;5011854;28;20030;-47
2023/07/25 03:14:29;;;;;;;2.70;1.85;;;17.30;99.90;;;;;;5012200;28;20022;-51
2023/07/25 03:16:55;;;;;;;2.35;2.25;;;17.30;99.90;;;;;;5011871;28;20087;-40
2023/07/25 03:19:20;;;;;;;2.72;2.53;;;17.20;99.90;;;;;;5011957;28;20076;-45
2023/07/25 03:21:45;;;;;;;3.08;2.70;;;17.10;99.90;;;;;;4994272;28;20036;-45
2023/07/25 03:24:11;;;;;;;3.67;2.45;;;17.00;99.90;;;;;;5011976;28;20018;-45
2023/07/25 03:26:36;;;;;;;3.55;2.85;;;17.10;99.90;;;;;;5011905;28;20279;-48
2023/07/25 03:29:02;;;;;;;2.88;2.58;;;17.00;99.90;;;;;;5011425;28;20029;-45
2023/07/25 03:31:27;;;;;;;2.95;2.75;;;17.00;99.90;;;;;;5012182;28;20105;-48
2023/07/25 03:33:53;;;;;;;3.25;2.20;;;17.00;99.90;;;;;;5012293;28;20109;-46
2023/07/25 03:36:18;;;;;;;2.33;2.20;;;17.00;99.90;;;;;;5012279;28;20029;-45
2023/07/25 03:38:44;;;;;;;2.47;2.03;;;17.00;99.90;;;;;;5012264;28;20030;-46
2023/07/25 03:41:09;;;;;;;4.38;2.92;;;17.00;99.90;;;;;;5012688;28;20146;-47
2023/07/25 03:43:35;;;;;;;3.97;2.58;;;17.10;99.90;;;;;;5011441;28;20018;-45
2023/07/25 03:46:00;;;;;;;5.35;2.63;;;17.10;99.90;;;;;;5011659;28;20022;-50
2023/07/25 03:48:26;;;;;;;3.88;3.28;;;17.10;99.90;;;;;;4993882;28;20049;-51
2023/07/25 03:50:51;;;;;;;3.72;3.20;;;17.10;99.90;;;;;;5011697;28;20026;-46
2023/07/25 03:53:17;;;;;;;4.07;3.58;;;17.20;99.90;;;;;;5011565;28;20545;-45
2023/07/25 03:55:42;;;;;;;3.90;3.35;;;17.20;99.90;;;;;;5011558;28;20036;-50
2023/07/25 03:58:08;;;;;;;3.83;3.40;;;17.10;99.90;;;;;;5011165;28;20046;-46
2023/07/25 04:00:33;;;;;;;6.07;3.50;;;17.00;99.90;;;;;;5011455;28;20084;-45
2023/07/25 04:02:59;;;;;;;5.20;3.88;;;16.90;99.90;;;;;;5011293;28;20092;-47
2023/07/25 04:05:24;;;;;;;4.80;4.40;;;16.80;99.90;;;;;;5011472;28;20112;-45
2023/07/25 04:07:50;;;;;;;6.05;4.78;;;16.70;99.90;;;;;;5011363;28;20374;-44
2023/07/25 04:10:15;;;;;;;5.00;4.13;;;16.70;99.90;;;;;;5011461;28;20030;-47
2023/07/25 04:12:41;;;;;;;5.32;4.43;;;16.90;99.90;;;;;;5011257;28;20069;-48
2023/07/25 04:15:07;;;;;;;4.40;3.80;;;16.70;99.90;;;;;;5011391;28;20582;-47
2023/07/25 04:17:32;;;;;;;5.35;4.13;;;16.80;99.90;;;;;;4993751;28;20516;-45
2023/07/25 04:19:58;;;;;;;4.47;4.00;;;16.80;99.90;;;;;;5011566;28;20061;-47
2023/07/25 04:22:23;;;;;;;5.78;4.82;;;16.80;99.90;;;;;;5011031;28;20100;-47
2023/07/25 04:24:49;;;;;;;4.25;3.92;;;16.90;99.90;;;;;;5011791;28;20026;-47
2023/07/25 04:27:14;;;;;;;7.93;4.55;;;16.70;99.90;;;;;;5010939;28;20018;-44
2023/07/25 04:29:40;;;;;;;4.45;4.03;;;16.80;99.90;;;;;;5011085;28;20513;-49
2023/07/25 04:32:06;;;;;;;5.53;4.25;;;16.80;99.90;;;;;;5011482;28;20022;-47
2023/07/25 04:34:31;;;;;;;4.18;3.78;;;16.80;99.90;;;;;;5010942;28;20034;-44
2023/07/25 04:36:57;;;;;;;4.75;3.80;;;16.80;99.90;;;;;;5011133;28;20033;-45
2023/07/25 04:39:22;;;;;;;4.95;4.43;;;16.80;99.90;;;;;;5011173;28;20033;-46
2023/07/25 04:41:48;;;;;;;7.38;3.85;;;16.80;99.90;;;;;;5011092;28;20370;-45
2023/07/25 04:44:13;;;;;;;5.25;3.75;;;16.90;99.90;;;;;;5011206;28;20081;-44
2023/07/25 04:46:39;;;;;;;3.80;3.50;;;16.80;99.90;;;;;;4993478;28;20046;-44
2023/07/25 04:49:06;;;;;;;4.43;4.03;;;16.90;99.90;;;;;;5010868;28;20026;-45
2023/07/25 04:51:32;;;;;;;5.03;4.55;;;16.90;99.90;;;;;;5011066;28;20028;-45
2023/07/25 04:53:57;;;;;;;5.95;4.22;;;17.00;99.90;;;;;;4993807;28;20541;-45
2023/07/25 04:56:23;;;;;;;5.25;4.10;;;16.90;99.90;;;;;;5014476;28;20061;-47
2023/07/25 04:58:48;;;;;;;5.18;3.75;;;16.90;99.90;;;;;;5014448;28;20026;-45
2023/07/25 05:01:14;;;;;;;7.82;4.60;;;16.90;99.90;;;;;;5014766;28;20409;-45
2023/07/25 05:03:39;;;;;;;7.90;5.20;;;17.00;99.90;;;;;;5014871;28;20034;-44
2023/07/25 05:06:05;;;;;;;6.20;5.47;;;17.00;99.90;;;;;;5014400;28;20026;-50
2023/07/25 05:08:30;;;;;;;7.63;5.72;;;17.10;99.90;;;;;;5014120;28;20067;-44
2023/07/25 05:10:56;;;;;;;6.43;4.93;;;16.90;99.90;;;;;;4996755;28;20021;-45
2023/07/25 05:13:21;;;;;;;9.55;6.32;;;16.90;99.90;;;;;;5046756;22;20056;-48
2023/07/25 05:15:47;;;;;;;7.55;6.05;;;17.00;99.90;;;;;;5032683;28;20036;-47
2023/07/25 05:18:12;;;;;;;7.78;5.65;;;17.40;99.90;;;;;;5033846;28;20484;-46
2023/07/25 05:20:38;;;;;;;12.88;6.57;;;17.00;99.90;;;;;;5032762;28;20028;-47
2023/07/25 05:23:04;;;;;;;9.73;6.43;;;17.10;99.90;;;;;;5033910;28;20104;-47
2023/07/25 05:25:29;;;;;;;7.32;6.50;;;17.10;99.90;;;;;;5034076;28;20340;-46
2023/07/25 05:27:55;;;;;;;9.68;6.72;;;17.10;99.90;;;;;;5033705;28;20053;-47
2023/07/25 05:30:20;;;;;;;6.78;6.18;;;17.20;99.90;;;;;;5033607;28;20079;-47
2023/07/25 05:32:48;;;;;;;6.28;5.68;;;17.20;99.90;;;;;;5033694;28;20071;-50
2023/07/25 05:35:13;;;;;;;9.75;6.30;;;17.20;99.90;;;;;;5033733;28;20087;-48
2023/07/25 05:37:39;;;;;;;6.47;5.78;;;17.30;99.90;;;;;;5033453;28;20029;-47
2023/07/25 05:40:05;;;;;;;7.85;6.97;;;17.40;99.90;;;;;;5015987;28;20499;-50
2023/07/25 05:42:32;;;;;;;6.78;6.07;;;17.50;99.90;;;;;;5033622;28;20034;-50
2023/07/25 05:44:59;;;;;;;6.47;5.88;;;17.50;99.90;;;;;;5033759;28;20026;-48
2023/07/25 05:47:25;;;;;;;6.20;5.57;;;17.50;99.90;;;;;;5033217;28;20033;-49
2023/07/25 05:49:51;;;;;;;7.68;6.25;;;17.60;99.90;;;;;;5033552;28;20155;-50
2023/07/25 05:52:16;;;;;;;5.30;4.80;;;17.50;99.90;;;;;;5015772;28;20588;-48
2023/07/25 05:54:43;;;;;;;6.72;6.03;;;17.60;99.90;;;;;;5033497;28;20028;-47
2023/07/25 05:57:08;;;;;;;10.80;5.72;;;17.80;99.90;;;;;;5015574;28;20029;-48
2023/07/25 05:59:34;;;;;;;9.38;6.72;;;18.00;99.90;;;;;;5033565;28;20477;-48
2023/07/25 06:01:59;;;;;;;7.13;6.43;;;18.10;99.90;;;;;;5033274;28;20029;-52
2023/07/25 06:04:25;;;;;;;9.52;7.15;;;18.10;99.90;;;;;;5033121;28;20052;-50
2023/07/25 06:06:51;;;;;;;7.82;6.30;;;18.10;99.90;;;;;;5032569;28;20108;-52
2023/07/25 06:09:16;;;;;;;6.40;5.80;;;18.00;99.90;;;;;;5033043;28;20097;-47
2023/07/25 06:11:42;;;;;;;8.35;6.78;;;17.90;99.90;;;;;;5033145;28;20022;-51
2023/07/25 06:14:07;;;;;;;8.93;6.50;;;17.80;99.90;;;;;;5032823;28;20045;-51
2023/07/25 06:16:33;;;;;;;9.98;6.15;;;17.70;99.90;;;;;;5032881;28;20029;-49
2023/07/25 06:18:58;;;;;;;8.77;6.47;;;17.80;99.90;;;;;;5032703;28;20591;-49
2023/07/25 06:21:24;;;;;;;13.48;6.20;;;17.60;99.90;;;;;;5032925;28;20061;-51
2023/07/25 06:23:49;;;;;;;8.32;6.57;;;17.50;99.90;;;;;;5032902;28;20523;-48
2023/07/25 06:26:15;;;;;;;9.95;6.55;;;17.40;99.90;;;;;;5032851;28;20036;-51
2023/07/25 06:28:40;;;;;;;12.38;7.03;;;17.40;99.90;;;;;;5032623;28;20036;-49
2023/07/25 06:31:06;;;;;;;13.00;7.90;;;17.40;99.90;;;;;;5014758;28;20032;-54
2023/07/25 06:33:31;;;;;;;9.95;6.93;;;17.40;99.90;;;;;;5032546;28;20021;-51
2023/07/25 06:35:57;;;;;;;13.10;7.55;;;17.40;99.90;;;;;;5015175;28;20033;-52
2023/07/25 06:38:22;;;;;;;9.65;7.40;;;17.40;99.90;;;;;;5032476;28;20056;-50
2023/07/25 06:40:48;;;;;;;12.27;7.90;;;17.50;99.90;;;;;;5032700;28;20014;-50
2023/07/25 06:43:13;;;;;;;19.80;8.55;;;17.50;99.90;;;;;;5032281;28;20370;-48
2023/07/25 06:45:39;;;;;;;10.13;7.93;;;17.40;99.90;;;;;;5032493;28;20028;-51
2023/07/25 06:48:05;;;;;;;8.43;7.18;;;17.40;99.90;;;;;;5032821;28;20092;-48
2023/07/25 06:50:32;;;;;;;13.43;8.00;;;17.40;99.90;;;;;;5014868;28;20029;-51
2023/07/25 06:52:58;;;;;;;10.07;7.32;;;17.40;99.90;;;;;;5032608;28;20508;-48
2023/07/25 06:55:23;;;;;;;9.15;7.30;;;17.40;99.90;;;;;;5032367;28;20111;-49
2023/07/25 06:57:49;;;;;;;7.85;7.13;;;17.30;99.90;;;;;;5014567;28;20028;-49
2023/07/25 07:00:14;;;;;;;10.10;7.55;;;17.40;99.90;;;;;;5032594;28;20378;-52
2023/07/25 07:02:41;;;;;;;10.82;7.95;;;17.40;99.90;;;;;;5032387;28;20496;-51
2023/07/25 07:05:06;;;;;;;7.85;7.03;;;17.30;99.90;;;;;;5032435;28;20431;-52
2023/07/25 07:07:32;;;;;;;9.27;7.63;;;17.70;99.90;;;;;;5032259;28;20026;-49
2023/07/25 07:09:58;;;;;;;8.93;7.45;;;17.50;99.90;;;;;;5032351;28;20033;-51
2023/07/25 07:12:23;;;;;;;8.23;7.40;;;17.60;99.90;;;;;;5032684;28;20401;-48
2023/07/25 07:14:49;;;;;;;8.70;7.20;;;17.70;99.90;;;;;;5033846;28;20108;-50
2023/07/25 07:17:14;;;;;;;9.85;7.60;;;17.60;99.90;;;;;;5032141;28;20456;-53
2023/07/25 07:19:40;;;;;;;10.27;7.72;;;17.70;99.90;;;;;;5031699;28;20029;-52
2023/07/25 07:22:05;;;;;;;8.38;7.47;;;17.70;99.90;;;;;;5031924;28;20652;-51
2023/07/25 07:24:31;;;;;;;9.95;7.15;;;17.90;99.90;;;;;;5032143;28;20083;-51
2023/07/25 07:26:56;;;;;;;7.40;6.70;;;17.50;99.90;;;;;;5031506;28;20397;-50
2023/07/25 07:29:21;;;;;;;12.02;7.55;;;17.50;99.90;;;;;;5031630;28;20037;-51
2023/07/25 07:31:47;;;;;;;8.38;7.53;;;17.60;99.90;;;;;;5014000;28;20522;-51
2023/07/25 07:34:16;;;;;;;9.63;6.97;;;17.50;99.90;;;;;;5031748;28;20025;-51
2023/07/25 07:36:42;;;;;;;9.73;7.47;;;17.30;99.90;;;;;;4997967;28;20108;-51
2023/07/25 07:39:08;;;;;;;8.98;7.57;;;17.30;99.90;;;;;;5031356;28;20033;-51
2023/07/25 07:41:34;;;;;;;8.80;7.20;;;17.20;99.90;;;;;;5031497;28;20030;-49
2023/07/25 07:44:00;;;;;;;9.45;7.20;;;17.10;99.90;;;;;;5031596;28;20021;-55
2023/07/25 07:46:31;;;;;;;8.90;8.07;;;16.90;99.90;;;;;;5031619;28;20101;-50
2023/07/25 07:48:57;;;;;;;12.50;9.70;;;16.80;99.90;;;;;;5031684;28;20515;-50
2023/07/25 07:51:23;;;;;;;10.90;9.80;;;16.80;99.90;;;;;;5031685;28;20448;-53
2023/07/25 07:53:49;;;;;;;16.45;10.38;;;16.80;99.90;;;;;;5031285;28;20028;-51
2023/07/25 07:56:15;;;;;;;14.50;10.73;;;16.80;99.90;;;;;;5031457;28;20025;-49
2023/07/25 07:58:40;;;;;;;15.30;10.70;;;16.70;99.90;;;;;;5013444;28;20026;-52
2023/07/25 08:01:21;;;;;;;17.42;10.70;;;16.70;99.90;;;;;;5031443;28;20029;-53
2023/07/25 08:03:47;;;;;;;13.95;11.65;;;16.60;99.90;;;;;;5031429;28;20091;-52
2023/07/25 08:06:13;;;;;;;15.13;11.68;;;16.60;99.90;;;;;;5031300;28;20022;-49
2023/07/25 08:08:40;;;;;;;15.23;11.88;;;16.50;99.90;;;;;;5031133;28;20040;-52
2023/07/25 08:11:05;;;;;;;14.90;12.13;;;16.50;99.90;;;;;;5031215;28;20029;-49
2023/07/25 08:13:31;;;;;;;14.93;12.02;;;16.50;99.90;;;;;;5031008;28;20503;-52
2023/07/25 08:15:56;;;;;;;16.95;12.52;;;16.50;99.90;;;;;;5031243;28;20029;-51
2023/07/25 08:18:22;;;;;;;17.50;13.55;;;16.50;99.90;;;;;;5013254;28;20036;-53
2023/07/25 08:20:51;;;;;;;16.58;12.65;;;16.50;99.90;;;;;;5031170;28;20029;-52
2023/07/25 08:23:17;;;;;;;15.15;13.45;;;16.50;99.90;;;;;;5031115;28;20032;-51
2023/07/25 08:25:43;;;;;;;17.10;12.45;;;16.50;99.90;;;;;;5013304;28;20384;-51
2023/07/25 08:28:09;;;;;;;13.68;10.25;;;16.30;99.90;;;;;;5030912;28;20030;-52
2023/07/25 08:30:35;;;;;;;10.10;9.10;;;16.00;99.90;;;;;;5032074;28;20029;-53
2023/07/25 08:33:00;;;;;;;14.00;9.90;;;15.90;99.90;;;;;;5040301;28;20037;-53
2023/07/25 08:35:26;;;;;;;16.58;11.02;;;15.90;99.90;;;;;;5046071;28;20024;-53
2023/07/25 08:37:51;;;;;;;12.15;10.80;;;16.00;99.90;;;;;;5054489;28;20033;-55
2023/07/25 08:40:17;;;;;;;14.40;11.55;;;16.00;99.90;;;;;;5041133;28;20481;-53
2023/07/25 08:42:44;;;;;;;13.80;12.02;;;16.00;99.90;;;;;;5033024;28;20061;-53
2023/07/25 08:45:10;;;;;;;15.90;11.48;;;16.00;99.90;;;;;;5014671;28;20040;-49
2023/07/25 08:47:40;;;;;;;12.77;10.63;;;15.90;99.90;;;;;;5033837;28;20060;-48
2023/07/25 08:50:16;;;;;;;14.30;9.55;;;15.80;99.90;;;;;;5034818;28;20049;-49
2023/07/25 08:52:55;;;;;;;10.88;8.77;;;15.70;99.90;;;;;;5034099;28;20413;-49
2023/07/25 08:55:21;;;;;;;12.65;9.75;;;15.70;99.90;;;;;;5040029;28;20021;-46
2023/07/25 08:57:48;;;;;;;10.65;8.38;;;15.70;99.90;;;;;;5037291;28;20029;-52
2023/07/25 09:00:15;;;;;;;10.05;7.15;;;;;;;;;;5034173;28;20029;-50
2023/07/25 09:02:41;;;;;;;11.65;8.32;;;;;;;;;;5034338;28;20455;-53
2023/07/25 09:05:07;;;;;;;11.77;7.60;;;;;;;;;;5034153;28;20049;-54
2023/07/25 09:07:33;;;;;;;11.40;8.85;;;;;;;;;;5033714;28;20022;-51
2023/07/25 09:09:59;;;;;;;10.48;8.10;;;;;;;;;;5032887;28;20029;-52
2023/07/25 09:12:25;;;;;;;8.45;7.05;;;;;;;;;;5016316;28;20033;-49
2023/07/25 09:14:52;;;;;;;8.52;6.60;;;;;;;;;;5033721;28;20179;-49
2023/07/25 09:17:18;;;;;;;5.20;4.75;;;;;;;;;;5033637;28;20034;-49
2023/07/25 09:19:44;;;;;;;5.35;4.55;;;;;;;;;;5015999;28;20041;-51
2023/07/25 09:22:27;;;;;;;8.80;6.90;;;;;;;;;;5041083;28;20102;-50
2023/07/25 09:24:53;;;;;;;8.07;4.60;;;;;;;;;;5031864;28;20028;-49
2023/07/25 09:27:19;;;;;;;9.25;5.25;;;;;;;;;;5045149;28;20021;-47
2023/07/25 09:29:46;;;;;;;7.38;4.97;;;;;;;;;;5053742;28;20017;-49
2023/07/25 09:32:25;;;;;;;6.72;4.90;;;;;;;;;;5053477;28;20021;-48
2023/07/25 09:35:01;;;;;;;4.90;4.43;;;;;;;;;;5053676;28;20140;-49
2023/07/25 09:37:30;;;;;;;4.95;4.45;;;;;;;;;;5053242;28;20100;-50
2023/07/25 09:39:56;;;;;;;6.78;3.97;;;;;;;;;;5043684;28;20029;-50
2023/07/25 09:42:22;;;;;;;8.35;5.00;;;;;;;;;;5044105;28;20051;-51
2023/07/25 09:44:51;;;;;;;6.90;5.05;;;;;;;;;;5042513;28;20018;-55
2023/07/25 09:47:27;;;;;;;5.45;4.95;;;;;;;;;;5032835;28;20025;-52
2023/07/25 09:49:56;;;;;;;78.10;51.70;;;;;;;;;;5033723;28;20433;-52
2023/07/25 09:52:23;;;;;;;8.15;7.32;;;;;;;;;;5015109;28;20059;-51
2023/07/25 09:54:49;;;;;;;7.07;6.30;;;;;;;;;;5033240;28;20068;-47
2023/07/25 09:57:15;;;;;;;5.93;4.93;;;;;;;;;;5036192;28;20368;-53
2023/07/25 09:59:42;;;;;;;4.68;4.28;;;;;;;;;;5017721;28;20124;-51
2023/07/25 10:02:09;;;;;;;5.80;5.05;;;16.30;99.90;;;;;;5011300;28;20044;-51
2023/07/25 10:04:38;;;;;;;4.28;3.88;;;16.40;99.90;;;;;;5036326;28;20484;-50
2023/07/25 10:07:05;;;;;;;3.95;3.65;;;16.40;99.90;;;;;;5020497;28;20033;-52
2023/07/25 10:09:31;;;;;;;4.38;3.83;;;16.40;99.90;;;;;;5019874;28;20033;-54
2023/07/25 10:11:56;;;;;;;6.40;4.03;;;16.50;99.90;;;;;;5019448;28;20480;-51
2023/07/25 10:14:22;;;;;;;4.88;3.85;;;16.40;99.90;;;;;;5033814;28;20037;-50
2023/07/25 10:16:49;;;;;;;4.00;3.40;;;16.50;99.90;;;;;;5032773;28;20021;-49
2023/07/25 10:19:15;;;;;;;3.80;3.50;;;16.60;99.90;;;;;;5032320;28;20076;-53
2023/07/25 10:21:53;;;;;;;5.55;3.50;;;16.70;99.90;;;;;;5032720;28;20536;-51
2023/07/25 10:24:22;;;;;;;3.83;3.47;;;16.80;99.90;;;;;;5032528;28;20028;-52
2023/07/25 10:27:00;;;;;;;4.07;3.28;;;17.30;99.90;;;;;;5032532;28;20024;-50
2023/07/25 10:29:43;;;;;;;5.32;3.90;;;17.20;99.90;;;;;;5030009;28;20123;-54
2023/07/25 10:32:13;;;;;;;3.85;3.45;;;17.30;99.90;;;;;;5022569;28;20025;-51
2023/07/25 10:34:51;;;;;;;4.07;3.70;;;17.30;99.90;;;;;;5032277;28;20104;-52
2023/07/25 10:37:28;;;;;;;5.32;3.53;;;17.40;99.90;;;;;;5032111;28;20033;-55
2023/07/25 10:40:09;;;;;;;4.45;3.72;;;17.30;99.90;;;;;;5032409;28;20424;-56
2023/07/25 10:42:51;;;;;;;4.03;3.30;;;17.40;99.90;;;;;;5032150;28;20033;-52
2023/07/25 10:45:29;;;;;;;3.72;3.42;;;17.40;99.90;;;;;;5024761;28;20025;-52
2023/07/25 10:47:58;;;;;;;5.13;3.92;;;17.20;99.90;;;;;;5031861;28;20018;-50
2023/07/25 10:50:43;;;;;;;3.58;3.28;;;17.10;99.90;;;;;;5032114;28;20112;-49
2023/07/25 10:53:15;;;;;;;6.57;3.45;;;17.20;99.90;;;;;;5031978;28;20030;-52
2023/07/25 10:56:04;;;;;;;5.55;3.22;;;17.30;99.90;;;;;;5031983;28;20080;-50
2023/07/25 10:58:30;;;;;;;4.28;2.58;;;17.30;99.90;;;;;;5014177;28;20105;-53
2023/07/25 11:00:57;;;;;;;2.67;2.53;;;17.20;99.90;;;;;;5014177;28;20420;-54
2023/07/25 11:03:33;;;;;;;2.55;2.00;;;17.30;99.90;;;;;;5031711;28;20033;-52
2023/07/25 11:06:08;;;;;;;3.47;2.70;;;17.30;99.90;;;;;;5032505;28;20109;-51
2023/07/25 11:08:38;;;;;;;2.40;2.30;;;17.40;99.90;;;;;;5038929;28;20025;-49
2023/07/25 11:11:06;;;;;;;3.17;2.30;;;17.60;99.90;;;;;;5031918;28;20060;-50
2023/07/25 11:13:34;;;;;;;3.13;2.55;;;17.80;99.90;;;;;;5058264;22;20499;-43
2023/07/25 11:16:07;;;;;;;3.03;2.67;;;18.00;99.90;;;;;;5051441;28;20097;-52
2023/07/25 11:18:33;;;;;;;3.60;3.30;;;18.00;99.90;;;;;;5050735;28;20043;-43
2023/07/25 11:21:09;;;;;;;24.15;17.13;;;18.00;99.90;;;;;;5048687;28;20064;-48
2023/07/25 11:23:35;;;;;;;1.98;1.88;;;18.20;99.90;;;;;;5044522;28;20060;-46
2023/07/25 11:26:08;;;;;;;1.92;1.83;;;18.40;99.90;;;;;;5030298;28;20437;-45
2023/07/25 11:28:37;;;;;;;3.30;2.20;;;18.40;99.90;;;;;;5013437;28;20071;-45
2023/07/25 11:31:02;;;;;;;2.53;2.20;;;18.50;99.90;;;;;;5031258;28;20033;-48
2023/07/25 11:33:36;;;;;;;1.92;1.60;;;18.50;99.90;;;;;;5029095;28;20410;-44
2023/07/25 11:36:02;;;;;;;2.13;2.00;;;18.50;99.90;;;;;;5031251;28;20040;-48
2023/07/25 11:38:27;;;;;;;1.92;1.83;;;18.50;99.90;;;;;;5030342;28;20100;-49
2023/07/25 11:40:56;;;;;;;6.43;4.75;;;18.40;99.90;;;;;;5031219;28;20029;-46
2023/07/25 11:43:22;;;;;;;1.88;1.77;;;18.30;99.90;;;;;;5031052;28;20036;-44
2023/07/25 11:45:48;;;;;;;2.17;1.80;;;18.20;99.90;;;;;;5030988;28;20021;-45
2023/07/25 11:48:15;;;;;;;1.90;1.63;;;18.20;99.90;;;;;;5031337;28;20642;-45
2023/07/25 11:50:43;;;;;;;2.05;1.65;;;18.10;99.90;;;;;;5029440;28;20595;-49
2023/07/25 11:53:09;;;;;;;1.73;1.52;;;18.10;99.90;;;;;;5012229;28;20121;-48
2023/07/25 11:55:36;;;;;;;3.15;1.70;;;18.10;99.90;;;;;;5031062;28;20044;-49
2023/07/25 11:58:02;;;;;;;1.95;1.20;;;18.10;99.90;;;;;;5030756;28;20068;-48
2023/07/25 12:00:39;;;;;;;1.63;1.52;;;18.20;99.90;;;;;;5032058;28;20053;-52
2023/07/25 12:03:19;;;;;;;1.52;1.42;;;18.40;99.90;;;;;;5011934;28;20021;-48
2023/07/25 12:05:55;;;;;;;1.42;1.33;;;18.60;99.90;;;;;;5039222;28;20088;-43
2023/07/25 12:08:30;;;;;;;1.50;1.40;;;18.80;99.90;;;;;;5037763;28;20025;-43
2023/07/25 12:11:00;;;;;;;27.50;16.40;;;18.90;99.90;;;;;;5029375;28;20024;-44
2023/07/25 12:13:25;;;;;;;1.90;1.80;;;19.10;99.90;;;;;;5030846;28;20087;-45
2023/07/25 12:15:51;;;;;;;1.30;1.20;;;19.20;99.90;;;;;;5029853;28;20025;-50
2023/07/25 12:18:31;;;;;;;1.42;1.30;;;19.40;99.90;;;;;;5040242;28;20033;-42
2023/07/25 12:20:58;;;;;;;1.25;1.00;;;19.50;99.90;;;;;;5041252;28;20026;-48
2023/07/25 12:23:33;;;;;;;1.10;1.10;;;19.60;99.90;;;;;;5051040;28;20032;-44
2023/07/25 12:26:02;;;;;;;1.08;0.98;;;19.60;99.90;;;;;;5052193;28;20158;-43
2023/07/25 12:28:44;;;;;;;1.50;1.40;;;19.60;99.90;;;;;;5041537;28;20103;-49
2023/07/25 12:31:10;;;;;;;1.58;1.40;;;19.70;99.90;;;;;;5015879;28;20029;-47
2023/07/25 12:33:36;;;;;;;1.17;1.10;;;19.80;99.90;;;;;;5014794;28;20034;-45
2023/07/25 12:36:02;;;;;;;1.20;1.20;;;19.80;99.90;;;;;;5014953;28;20025;-47
2023/07/25 12:38:27;;;;;;;1.00;1.00;;;19.80;99.90;;;;;;5014623;28;20053;-48
2023/07/25 12:40:53;;;;;;;1.13;1.13;;;20.00;99.90;;;;;;5015163;28;20414;-42
2023/07/25 12:43:19;;;;;;;1.13;1.13;;;19.90;99.90;;;;;;4997141;28;20516;-44
2023/07/25 12:45:45;;;;;;;1.48;1.38;;;19.60;99.90;;;;;;4997458;28;20041;-41
2023/07/25 12:48:11;;;;;;;1.80;1.65;;;19.40;99.90;;;;;;5014467;28;20030;-46
2023/07/25 12:50:39;;;;;;;1.38;1.27;;;19.30;99.90;;;;;;5014684;28;20022;-45
2023/07/25 12:53:04;;;;;;;1.40;1.30;;;19.40;99.90;;;;;;5014487;28;20508;-47